sensor_id;sensor_type;location;lat;lon;timestamp;P1;durP1;ratioP1;P2;durP2;ratioP2
46551;SDS011;32278;51.810;4.712;2023-03-01T00:01:55;21.98;;;12.05;;
46551;SDS011;32278;51.810;4.712;2023-03-01T00:04:20;22.08;;;12.10;;
46551;SDS011;32278;51.810;4.712;2023-03-01T00:06:46;24.50;;;11.35;;
46551;SDS011;32278;51.810;4.712;2023-03-01T00:09:13;24.27;;;12.38;;
46551;SDS011;32278;51.810;4.712;2023-03-01T00:11:39;21.48;;;11.10;;
46551;SDS011;32278;51.810;4.712;2023-03-01T00:14:06;24.52;;;12.35;;
46551;SDS011;32278;51.810;4.712;2023-03-01T00:16:36;25.52;;;12.70;;
46551;SDS011;32278;51.810;4.712;2023-03-01T00:19:04;31.42;;;12.57;;
46551;SDS011;32278;51.810;4.712;2023-03-01T00:21:31;25.85;;;12.68;;
46551;SDS011;32278;51.810;4.712;2023-03-01T00:23:57;26.90;;;12.48;;
46551;SDS011;32278;51.810;4.712;2023-03-01T00:26:24;24.58;;;13.50;;
46551;SDS011;32278;51.810;4.712;2023-03-01T00:28:50;27.10;;;12.52;;
46551;SDS011;32278;51.810;4.712;2023-03-01T00:31:20;32.17;;;14.68;;
46551;SDS011;32278;51.810;4.712;2023-03-01T00:33:47;28.88;;;13.80;;
46551;SDS011;32278;51.810;4.712;2023-03-01T00:36:13;29.58;;;13.65;;
46551;SDS011;32278;51.810;4.712;2023-03-01T00:38:41;31.70;;;12.52;;
46551;SDS011;32278;51.810;4.712;2023-03-01T00:41:09;25.08;;;12.63;;
46551;SDS011;32278;51.810;4.712;2023-03-01T00:43:36;26.63;;;12.52;;
46551;SDS011;32278;51.810;4.712;2023-03-01T00:46:03;24.95;;;13.55;;
46551;SDS011;32278;51.810;4.712;2023-03-01T00:48:34;24.85;;;11.82;;
46551;SDS011;32278;51.810;4.712;2023-03-01T00:51:10;26.75;;;12.65;;
46551;SDS011;32278;51.810;4.712;2023-03-01T00:53:41;29.67;;;13.15;;
46551;SDS011;32278;51.810;4.712;2023-03-01T00:56:12;29.20;;;13.15;;
46551;SDS011;32278;51.810;4.712;2023-03-01T00:58:40;27.25;;;13.18;;
46551;SDS011;32278;51.810;4.712;2023-03-01T01:01:09;28.67;;;13.32;;
46551;SDS011;32278;51.810;4.712;2023-03-01T01:03:42;27.73;;;14.43;;
46551;SDS011;32278;51.810;4.712;2023-03-01T01:06:14;26.70;;;13.85;;
46551;SDS011;32278;51.810;4.712;2023-03-01T01:08:47;29.23;;;13.30;;
46551;SDS011;32278;51.810;4.712;2023-03-01T01:11:15;25.70;;;12.57;;
46551;SDS011;32278;51.810;4.712;2023-03-01T01:13:41;34.80;;;14.55;;
46551;SDS011;32278;51.810;4.712;2023-03-01T01:16:08;28.55;;;14.07;;
46551;SDS011;32278;51.810;4.712;2023-03-01T01:18:34;24.15;;;12.93;;
46551;SDS011;32278;51.810;4.712;2023-03-01T01:21:04;30.85;;;14.80;;
46551;SDS011;32278;51.810;4.712;2023-03-01T01:23:31;25.88;;;12.88;;
46551;SDS011;32278;51.810;4.712;2023-03-01T01:25:57;27.85;;;14.63;;
46551;SDS011;32278;51.810;4.712;2023-03-01T01:28:28;30.48;;;14.70;;
46551;SDS011;32278;51.810;4.712;2023-03-01T01:30:53;30.55;;;13.93;;
46551;SDS011;32278;51.810;4.712;2023-03-01T01:33:19;30.50;;;14.80;;
46551;SDS011;32278;51.810;4.712;2023-03-01T01:35:45;29.55;;;14.18;;
46551;SDS011;32278;51.810;4.712;2023-03-01T01:38:10;29.27;;;14.98;;
46551;SDS011;32278;51.810;4.712;2023-03-01T01:40:42;30.73;;;13.82;;
46551;SDS011;32278;51.810;4.712;2023-03-01T01:43:22;36.38;;;15.05;;
46551;SDS011;32278;51.810;4.712;2023-03-01T01:45:48;27.90;;;14.20;;
46551;SDS011;32278;51.810;4.712;2023-03-01T01:48:16;30.55;;;14.48;;
46551;SDS011;32278;51.810;4.712;2023-03-01T01:50:46;28.33;;;14.57;;
46551;SDS011;32278;51.810;4.712;2023-03-01T01:53:20;29.48;;;13.90;;
46551;SDS011;32278;51.810;4.712;2023-03-01T01:55:47;34.63;;;13.57;;
46551;SDS011;32278;51.810;4.712;2023-03-01T01:58:18;32.00;;;14.50;;
46551;SDS011;32278;51.810;4.712;2023-03-01T02:00:44;34.63;;;13.90;;
46551;SDS011;32278;51.810;4.712;2023-03-01T02:03:11;31.83;;;15.18;;
46551;SDS011;32278;51.810;4.712;2023-03-01T02:08:23;32.58;;;14.38;;
46551;SDS011;32278;51.810;4.712;2023-03-01T02:10:53;29.90;;;14.85;;
46551;SDS011;32278;51.810;4.712;2023-03-01T02:13:21;33.72;;;15.20;;
46551;SDS011;32278;51.810;4.712;2023-03-01T02:15:46;29.75;;;15.63;;
46551;SDS011;32278;51.810;4.712;2023-03-01T02:18:12;30.65;;;13.52;;
46551;SDS011;32278;51.810;4.712;2023-03-01T02:20:51;29.98;;;15.63;;
46551;SDS011;32278;51.810;4.712;2023-03-01T02:23:35;32.60;;;15.60;;
46551;SDS011;32278;51.810;4.712;2023-03-01T02:26:06;32.25;;;15.57;;
46551;SDS011;32278;51.810;4.712;2023-03-01T02:28:38;39.92;;;17.60;;
46551;SDS011;32278;51.810;4.712;2023-03-01T02:31:07;35.47;;;15.80;;
46551;SDS011;32278;51.810;4.712;2023-03-01T02:33:53;35.30;;;17.02;;
46551;SDS011;32278;51.810;4.712;2023-03-01T02:36:24;32.75;;;16.52;;
46551;SDS011;32278;51.810;4.712;2023-03-01T02:38:53;40.05;;;16.50;;
46551;SDS011;32278;51.810;4.712;2023-03-01T02:41:22;40.22;;;17.15;;
46551;SDS011;32278;51.810;4.712;2023-03-01T02:43:51;37.10;;;16.88;;
46551;SDS011;32278;51.810;4.712;2023-03-01T02:46:21;34.08;;;15.70;;
46551;SDS011;32278;51.810;4.712;2023-03-01T02:51:22;37.28;;;16.08;;
46551;SDS011;32278;51.810;4.712;2023-03-01T02:56:40;35.38;;;16.50;;
46551;SDS011;32278;51.810;4.712;2023-03-01T02:59:07;38.53;;;17.92;;
46551;SDS011;32278;51.810;4.712;2023-03-01T03:01:34;35.65;;;19.15;;
46551;SDS011;32278;51.810;4.712;2023-03-01T03:04:04;36.65;;;16.00;;
46551;SDS011;32278;51.810;4.712;2023-03-01T03:06:34;34.57;;;15.77;;
46551;SDS011;32278;51.810;4.712;2023-03-01T03:09:00;39.88;;;16.27;;
46551;SDS011;32278;51.810;4.712;2023-03-01T03:11:26;33.13;;;15.35;;
46551;SDS011;32278;51.810;4.712;2023-03-01T03:13:52;36.38;;;14.35;;
46551;SDS011;32278;51.810;4.712;2023-03-01T03:16:18;36.40;;;16.73;;
46551;SDS011;32278;51.810;4.712;2023-03-01T03:18:44;33.60;;;14.85;;
46551;SDS011;32278;51.810;4.712;2023-03-01T03:21:11;31.67;;;14.48;;
46551;SDS011;32278;51.810;4.712;2023-03-01T03:23:37;30.17;;;13.65;;
46551;SDS011;32278;51.810;4.712;2023-03-01T03:26:04;37.42;;;15.38;;
46551;SDS011;32278;51.810;4.712;2023-03-01T03:28:31;30.13;;;13.40;;
46551;SDS011;32278;51.810;4.712;2023-03-01T03:30:57;34.90;;;14.55;;
46551;SDS011;32278;51.810;4.712;2023-03-01T03:33:23;30.80;;;14.63;;
46551;SDS011;32278;51.810;4.712;2023-03-01T03:35:49;31.65;;;14.45;;
46551;SDS011;32278;51.810;4.712;2023-03-01T03:38:16;25.60;;;12.60;;
46551;SDS011;32278;51.810;4.712;2023-03-01T03:40:45;32.15;;;13.85;;
46551;SDS011;32278;51.810;4.712;2023-03-01T03:43:13;27.50;;;13.48;;
46551;SDS011;32278;51.810;4.712;2023-03-01T03:45:39;30.00;;;13.68;;
46551;SDS011;32278;51.810;4.712;2023-03-01T03:48:07;29.55;;;14.50;;
46551;SDS011;32278;51.810;4.712;2023-03-01T03:50:37;24.38;;;13.13;;
46551;SDS011;32278;51.810;4.712;2023-03-01T03:53:05;27.85;;;13.80;;
46551;SDS011;32278;51.810;4.712;2023-03-01T03:55:33;26.58;;;13.55;;
46551;SDS011;32278;51.810;4.712;2023-03-01T03:58:00;29.17;;;13.07;;
46551;SDS011;32278;51.810;4.712;2023-03-01T04:00:31;28.35;;;13.80;;
46551;SDS011;32278;51.810;4.712;2023-03-01T04:03:01;26.08;;;13.20;;
46551;SDS011;32278;51.810;4.712;2023-03-01T04:05:27;27.90;;;13.48;;
46551;SDS011;32278;51.810;4.712;2023-03-01T04:07:53;29.52;;;14.18;;
46551;SDS011;32278;51.810;4.712;2023-03-01T04:10:26;25.90;;;14.18;;
46551;SDS011;32278;51.810;4.712;2023-03-01T04:12:57;31.58;;;13.93;;
46551;SDS011;32278;51.810;4.712;2023-03-01T04:15:23;29.77;;;14.35;;
46551;SDS011;32278;51.810;4.712;2023-03-01T04:17:51;27.63;;;12.88;;
46551;SDS011;32278;51.810;4.712;2023-03-01T04:20:18;25.65;;;13.48;;
46551;SDS011;32278;51.810;4.712;2023-03-01T04:22:49;28.65;;;13.50;;
46551;SDS011;32278;51.810;4.712;2023-03-01T04:25:33;28.38;;;13.77;;
46551;SDS011;32278;51.810;4.712;2023-03-01T04:27:58;29.63;;;13.82;;
46551;SDS011;32278;51.810;4.712;2023-03-01T04:30:24;31.63;;;13.45;;
46551;SDS011;32278;51.810;4.712;2023-03-01T04:32:50;35.67;;;13.52;;
46551;SDS011;32278;51.810;4.712;2023-03-01T04:35:15;27.50;;;13.55;;
46551;SDS011;32278;51.810;4.712;2023-03-01T04:37:41;23.38;;;12.45;;
46551;SDS011;32278;51.810;4.712;2023-03-01T04:40:07;25.35;;;12.98;;
46551;SDS011;32278;51.810;4.712;2023-03-01T04:42:40;25.08;;;12.07;;
46551;SDS011;32278;51.810;4.712;2023-03-01T04:45:06;26.13;;;12.68;;
46551;SDS011;32278;51.810;4.712;2023-03-01T04:47:37;28.48;;;13.48;;
46551;SDS011;32278;51.810;4.712;2023-03-01T04:50:04;23.40;;;12.48;;
46551;SDS011;32278;51.810;4.712;2023-03-01T04:52:30;27.17;;;13.18;;
46551;SDS011;32278;51.810;4.712;2023-03-01T04:54:56;25.75;;;12.85;;
46551;SDS011;32278;51.810;4.712;2023-03-01T04:57:22;24.42;;;12.52;;
46551;SDS011;32278;51.810;4.712;2023-03-01T04:59:47;25.75;;;12.80;;
46551;SDS011;32278;51.810;4.712;2023-03-01T05:02:13;27.95;;;12.63;;
46551;SDS011;32278;51.810;4.712;2023-03-01T05:04:39;27.70;;;13.15;;
46551;SDS011;32278;51.810;4.712;2023-03-01T05:07:04;27.98;;;13.60;;
46551;SDS011;32278;51.810;4.712;2023-03-01T05:09:30;27.35;;;13.93;;
46551;SDS011;32278;51.810;4.712;2023-03-01T05:11:55;25.58;;;13.35;;
46551;SDS011;32278;51.810;4.712;2023-03-01T05:14:21;26.27;;;13.55;;
46551;SDS011;32278;51.810;4.712;2023-03-01T05:16:47;26.63;;;12.68;;
46551;SDS011;32278;51.810;4.712;2023-03-01T05:19:13;30.08;;;13.05;;
46551;SDS011;32278;51.810;4.712;2023-03-01T05:21:40;22.33;;;12.15;;
46551;SDS011;32278;51.810;4.712;2023-03-01T05:24:25;24.73;;;12.95;;
46551;SDS011;32278;51.810;4.712;2023-03-01T05:26:51;26.30;;;12.60;;
46551;SDS011;32278;51.810;4.712;2023-03-01T05:29:18;25.88;;;12.18;;
46551;SDS011;32278;51.810;4.712;2023-03-01T05:31:50;26.08;;;11.88;;
46551;SDS011;32278;51.810;4.712;2023-03-01T05:34:17;25.27;;;12.70;;
46551;SDS011;32278;51.810;4.712;2023-03-01T05:36:42;22.33;;;11.32;;
46551;SDS011;32278;51.810;4.712;2023-03-01T05:39:08;23.63;;;11.75;;
46551;SDS011;32278;51.810;4.712;2023-03-01T05:41:33;28.17;;;12.10;;
46551;SDS011;32278;51.810;4.712;2023-03-01T05:43:59;24.38;;;11.55;;
46551;SDS011;32278;51.810;4.712;2023-03-01T05:46:24;19.73;;;10.65;;
46551;SDS011;32278;51.810;4.712;2023-03-01T05:48:50;20.55;;;10.90;;
46551;SDS011;32278;51.810;4.712;2023-03-01T05:51:15;24.13;;;11.75;;
46551;SDS011;32278;51.810;4.712;2023-03-01T05:53:42;23.58;;;10.57;;
46551;SDS011;32278;51.810;4.712;2023-03-01T05:56:08;22.60;;;11.63;;
46551;SDS011;32278;51.810;4.712;2023-03-01T05:58:33;19.52;;;10.40;;
46551;SDS011;32278;51.810;4.712;2023-03-01T06:00:59;22.33;;;11.23;;
46551;SDS011;32278;51.810;4.712;2023-03-01T06:03:24;26.15;;;11.00;;
46551;SDS011;32278;51.810;4.712;2023-03-01T06:05:50;22.00;;;10.68;;
46551;SDS011;32278;51.810;4.712;2023-03-01T06:08:21;22.13;;;11.40;;
46551;SDS011;32278;51.810;4.712;2023-03-01T06:10:47;25.25;;;11.65;;
46551;SDS011;32278;51.810;4.712;2023-03-01T06:13:12;25.85;;;11.57;;
46551;SDS011;32278;51.810;4.712;2023-03-01T06:15:38;26.45;;;12.20;;
46551;SDS011;32278;51.810;4.712;2023-03-01T06:18:03;26.35;;;11.40;;
46551;SDS011;32278;51.810;4.712;2023-03-01T06:20:29;29.40;;;11.60;;
46551;SDS011;32278;51.810;4.712;2023-03-01T06:22:55;22.67;;;11.00;;
46551;SDS011;32278;51.810;4.712;2023-03-01T06:25:22;30.30;;;11.07;;
46551;SDS011;32278;51.810;4.712;2023-03-01T06:27:49;19.85;;;10.48;;
46551;SDS011;32278;51.810;4.712;2023-03-01T06:30:17;26.33;;;11.63;;
46551;SDS011;32278;51.810;4.712;2023-03-01T06:32:44;19.65;;;10.32;;
46551;SDS011;32278;51.810;4.712;2023-03-01T06:35:10;21.67;;;10.23;;
46551;SDS011;32278;51.810;4.712;2023-03-01T06:37:37;19.88;;;10.65;;
46551;SDS011;32278;51.810;4.712;2023-03-01T06:40:04;16.35;;;9.77;;
46551;SDS011;32278;51.810;4.712;2023-03-01T06:42:33;22.45;;;10.27;;
46551;SDS011;32278;51.810;4.712;2023-03-01T06:45:03;22.63;;;10.63;;
46551;SDS011;32278;51.810;4.712;2023-03-01T06:47:30;25.88;;;10.57;;
46551;SDS011;32278;51.810;4.712;2023-03-01T06:49:55;23.17;;;10.77;;
46551;SDS011;32278;51.810;4.712;2023-03-01T06:52:21;27.23;;;11.43;;
46551;SDS011;32278;51.810;4.712;2023-03-01T06:54:47;21.00;;;10.55;;
46551;SDS011;32278;51.810;4.712;2023-03-01T06:57:12;22.35;;;11.02;;
46551;SDS011;32278;51.810;4.712;2023-03-01T06:59:38;27.02;;;11.20;;
46551;SDS011;32278;51.810;4.712;2023-03-01T07:02:06;25.42;;;10.73;;
46551;SDS011;32278;51.810;4.712;2023-03-01T07:04:35;23.85;;;11.15;;
46551;SDS011;32278;51.810;4.712;2023-03-01T07:07:00;19.42;;;10.70;;
46551;SDS011;32278;51.810;4.712;2023-03-01T07:09:26;27.92;;;11.20;;
46551;SDS011;32278;51.810;4.712;2023-03-01T07:11:52;24.02;;;10.30;;
46551;SDS011;32278;51.810;4.712;2023-03-01T07:14:17;19.75;;;10.13;;
46551;SDS011;32278;51.810;4.712;2023-03-01T07:16:44;23.25;;;10.77;;
46551;SDS011;32278;51.810;4.712;2023-03-01T07:19:10;21.90;;;10.07;;
46551;SDS011;32278;51.810;4.712;2023-03-01T07:21:36;20.20;;;9.38;;
46551;SDS011;32278;51.810;4.712;2023-03-01T07:24:04;20.63;;;10.82;;
46551;SDS011;32278;51.810;4.712;2023-03-01T07:26:31;19.88;;;9.85;;
46551;SDS011;32278;51.810;4.712;2023-03-01T07:28:58;16.52;;;9.43;;
46551;SDS011;32278;51.810;4.712;2023-03-01T07:31:25;20.52;;;9.70;;
46551;SDS011;32278;51.810;4.712;2023-03-01T07:33:53;22.27;;;9.93;;
46551;SDS011;32278;51.810;4.712;2023-03-01T07:36:19;20.75;;;9.30;;
46551;SDS011;32278;51.810;4.712;2023-03-01T07:38:45;22.52;;;9.93;;
46551;SDS011;32278;51.810;4.712;2023-03-01T07:41:11;17.70;;;9.32;;
46551;SDS011;32278;51.810;4.712;2023-03-01T07:43:36;16.45;;;8.52;;
46551;SDS011;32278;51.810;4.712;2023-03-01T07:46:02;19.10;;;9.43;;
46551;SDS011;32278;51.810;4.712;2023-03-01T07:48:29;16.33;;;9.20;;
46551;SDS011;32278;51.810;4.712;2023-03-01T07:50:57;18.83;;;9.13;;
46551;SDS011;32278;51.810;4.712;2023-03-01T07:53:25;16.63;;;9.45;;
46551;SDS011;32278;51.810;4.712;2023-03-01T07:55:59;22.23;;;9.65;;
46551;SDS011;32278;51.810;4.712;2023-03-01T07:58:33;15.95;;;8.68;;
46551;SDS011;32278;51.810;4.712;2023-03-01T08:01:04;20.75;;;9.88;;
46551;SDS011;32278;51.810;4.712;2023-03-01T08:03:31;21.13;;;10.23;;
46551;SDS011;32278;51.810;4.712;2023-03-01T08:06:05;16.52;;;9.18;;
46551;SDS011;32278;51.810;4.712;2023-03-01T08:08:33;14.15;;;8.75;;
46551;SDS011;32278;51.810;4.712;2023-03-01T08:10:59;17.02;;;8.02;;
46551;SDS011;32278;51.810;4.712;2023-03-01T08:13:26;14.93;;;8.13;;
46551;SDS011;32278;51.810;4.712;2023-03-01T08:15:52;15.50;;;8.23;;
46551;SDS011;32278;51.810;4.712;2023-03-01T08:18:19;18.23;;;8.57;;
46551;SDS011;32278;51.810;4.712;2023-03-01T08:20:46;17.33;;;8.55;;
46551;SDS011;32278;51.810;4.712;2023-03-01T08:23:12;17.73;;;8.23;;
46551;SDS011;32278;51.810;4.712;2023-03-01T08:25:38;17.02;;;7.97;;
46551;SDS011;32278;51.810;4.712;2023-03-01T08:28:04;20.17;;;9.40;;
46551;SDS011;32278;51.810;4.712;2023-03-01T08:30:30;11.20;;;6.68;;
46551;SDS011;32278;51.810;4.712;2023-03-01T08:32:56;12.30;;;7.53;;
46551;SDS011;32278;51.810;4.712;2023-03-01T08:35:22;12.82;;;7.22;;
46551;SDS011;32278;51.810;4.712;2023-03-01T08:37:48;13.52;;;6.40;;
46551;SDS011;32278;51.810;4.712;2023-03-01T08:40:13;9.77;;;5.30;;
46551;SDS011;32278;51.810;4.712;2023-03-01T08:42:42;12.20;;;6.32;;
46551;SDS011;32278;51.810;4.712;2023-03-01T08:45:08;9.73;;;6.13;;
46551;SDS011;32278;51.810;4.712;2023-03-01T08:47:34;10.90;;;6.25;;
46551;SDS011;32278;51.810;4.712;2023-03-01T08:50:00;12.27;;;6.40;;
46551;SDS011;32278;51.810;4.712;2023-03-01T08:52:26;10.73;;;6.20;;
46551;SDS011;32278;51.810;4.712;2023-03-01T08:54:51;9.68;;;6.18;;
46551;SDS011;32278;51.810;4.712;2023-03-01T08:57:17;8.70;;;5.60;;
46551;SDS011;32278;51.810;4.712;2023-03-01T08:59:43;10.35;;;5.95;;
46551;SDS011;32278;51.810;4.712;2023-03-01T09:02:11;11.05;;;6.22;;
46551;SDS011;32278;51.810;4.712;2023-03-01T09:04:38;12.05;;;6.50;;
46551;SDS011;32278;51.810;4.712;2023-03-01T09:07:04;14.48;;;5.85;;
46551;SDS011;32278;51.810;4.712;2023-03-01T09:09:30;11.30;;;5.53;;
46551;SDS011;32278;51.810;4.712;2023-03-01T09:11:55;12.30;;;5.68;;
46551;SDS011;32278;51.810;4.712;2023-03-01T09:14:21;10.00;;;5.32;;
46551;SDS011;32278;51.810;4.712;2023-03-01T09:16:46;15.65;;;6.40;;
46551;SDS011;32278;51.810;4.712;2023-03-01T09:19:12;11.77;;;5.30;;
46551;SDS011;32278;51.810;4.712;2023-03-01T09:21:38;10.10;;;6.20;;
46551;SDS011;32278;51.810;4.712;2023-03-01T09:24:04;9.60;;;5.20;;
46551;SDS011;32278;51.810;4.712;2023-03-01T09:26:29;7.45;;;4.70;;
46551;SDS011;32278;51.810;4.712;2023-03-01T09:28:55;11.15;;;5.18;;
46551;SDS011;32278;51.810;4.712;2023-03-01T09:31:22;6.57;;;4.38;;
46551;SDS011;32278;51.810;4.712;2023-03-01T09:33:49;8.88;;;4.63;;
46551;SDS011;32278;51.810;4.712;2023-03-01T09:36:17;8.60;;;4.93;;
46551;SDS011;32278;51.810;4.712;2023-03-01T09:38:45;8.35;;;4.68;;
46551;SDS011;32278;51.810;4.712;2023-03-01T09:46:39;8.70;;;4.18;;
46551;SDS011;32278;51.810;4.712;2023-03-01T09:49:11;10.77;;;4.85;;
46551;SDS011;32278;51.810;4.712;2023-03-01T09:51:52;8.82;;;4.90;;
46551;SDS011;32278;51.810;4.712;2023-03-01T09:54:25;11.60;;;5.00;;
46551;SDS011;32278;51.810;4.712;2023-03-01T09:57:00;9.35;;;4.70;;
46551;SDS011;32278;51.810;4.712;2023-03-01T09:59:38;7.97;;;4.45;;
46551;SDS011;32278;51.810;4.712;2023-03-01T10:02:24;9.32;;;4.65;;
46551;SDS011;32278;51.810;4.712;2023-03-01T10:08:46;6.07;;;3.88;;
46551;SDS011;32278;51.810;4.712;2023-03-01T10:11:20;7.30;;;3.90;;
46551;SDS011;32278;51.810;4.712;2023-03-01T10:13:55;7.75;;;4.57;;
46551;SDS011;32278;51.810;4.712;2023-03-01T10:19:05;7.55;;;3.88;;
46551;SDS011;32278;51.810;4.712;2023-03-01T10:21:36;8.02;;;3.33;;
46551;SDS011;32278;51.810;4.712;2023-03-01T10:24:16;8.00;;;3.40;;
46551;SDS011;32278;51.810;4.712;2023-03-01T10:29:23;8.43;;;3.90;;
46551;SDS011;32278;51.810;4.712;2023-03-01T10:32:10;5.78;;;3.40;;
46551;SDS011;32278;51.810;4.712;2023-03-01T10:34:36;4.00;;;2.72;;
46551;SDS011;32278;51.810;4.712;2023-03-01T10:39:54;6.00;;;3.20;;
46551;SDS011;32278;51.810;4.712;2023-03-01T10:42:28;9.77;;;3.33;;
46551;SDS011;32278;51.810;4.712;2023-03-01T10:44:56;4.45;;;3.05;;
46551;SDS011;32278;51.810;4.712;2023-03-01T10:47:23;6.28;;;3.83;;
46551;SDS011;32278;51.810;4.712;2023-03-01T10:52:19;9.02;;;3.70;;
46551;SDS011;32278;51.810;4.712;2023-03-01T10:55:02;7.00;;;3.08;;
46551;SDS011;32278;51.810;4.712;2023-03-01T10:57:37;9.60;;;3.10;;
46551;SDS011;32278;51.810;4.712;2023-03-01T11:00:21;7.63;;;3.53;;
46551;SDS011;32278;51.810;4.712;2023-03-01T11:03:04;11.93;;;3.25;;
46551;SDS011;32278;51.810;4.712;2023-03-01T11:05:36;7.38;;;3.72;;
46551;SDS011;32278;51.810;4.712;2023-03-01T11:08:14;3.95;;;2.42;;
46551;SDS011;32278;51.810;4.712;2023-03-01T11:10:59;4.35;;;2.40;;
46551;SDS011;32278;51.810;4.712;2023-03-01T11:13:34;4.00;;;2.67;;
46551;SDS011;32278;51.810;4.712;2023-03-01T11:16:01;8.20;;;3.25;;
46551;SDS011;32278;51.810;4.712;2023-03-01T11:18:29;6.10;;;3.30;;
46551;SDS011;32278;51.810;4.712;2023-03-01T11:20:55;5.93;;;3.08;;
46551;SDS011;32278;51.810;4.712;2023-03-01T11:23:24;5.97;;;3.25;;
46551;SDS011;32278;51.810;4.712;2023-03-01T11:25:56;9.52;;;3.38;;
46551;SDS011;32278;51.810;4.712;2023-03-01T11:28:32;7.55;;;2.75;;
46551;SDS011;32278;51.810;4.712;2023-03-01T11:31:08;6.57;;;3.00;;
46551;SDS011;32278;51.810;4.712;2023-03-01T11:42:21;4.70;;;2.47;;
46551;SDS011;32278;51.810;4.712;2023-03-01T11:45:08;6.70;;;3.10;;
46551;SDS011;32278;51.810;4.712;2023-03-01T11:50:48;5.28;;;3.10;;
46551;SDS011;32278;51.810;4.712;2023-03-01T11:56:29;5.07;;;2.55;;
46551;SDS011;32278;51.810;4.712;2023-03-01T11:59:03;6.32;;;3.08;;
46551;SDS011;32278;51.810;4.712;2023-03-01T12:10:19;8.25;;;3.15;;
46551;SDS011;32278;51.810;4.712;2023-03-01T12:21:21;8.43;;;3.25;;
46551;SDS011;32278;51.810;4.712;2023-03-01T12:33:19;4.78;;;2.80;;
46551;SDS011;32278;51.810;4.712;2023-03-01T12:35:53;5.85;;;3.10;;
46551;SDS011;32278;51.810;4.712;2023-03-01T12:44:10;7.88;;;3.22;;
46551;SDS011;32278;51.810;4.712;2023-03-01T12:46:48;6.93;;;3.67;;
46551;SDS011;32278;51.810;4.712;2023-03-01T12:49:31;6.82;;;3.35;;
46551;SDS011;32278;51.810;4.712;2023-03-01T12:52:07;8.27;;;3.70;;
46551;SDS011;32278;51.810;4.712;2023-03-01T12:54:39;8.68;;;3.63;;
46551;SDS011;32278;51.810;4.712;2023-03-01T12:57:16;6.22;;;3.72;;
46551;SDS011;32278;51.810;4.712;2023-03-01T13:03:11;5.15;;;3.38;;
46551;SDS011;32278;51.810;4.712;2023-03-01T13:05:52;7.75;;;3.55;;
46551;SDS011;32278;51.810;4.712;2023-03-01T13:08:36;7.90;;;3.65;;
46551;SDS011;32278;51.810;4.712;2023-03-01T13:11:18;5.68;;;3.40;;
46551;SDS011;32278;51.810;4.712;2023-03-01T13:13:46;5.65;;;3.67;;
46551;SDS011;32278;51.810;4.712;2023-03-01T13:16:22;5.85;;;3.90;;
46551;SDS011;32278;51.810;4.712;2023-03-01T13:19:17;7.35;;;3.20;;
46551;SDS011;32278;51.810;4.712;2023-03-01T13:21:44;8.73;;;3.60;;
46551;SDS011;32278;51.810;4.712;2023-03-01T13:29:57;12.00;;;4.55;;
46551;SDS011;32278;51.810;4.712;2023-03-01T13:32:32;4.80;;;2.40;;
46551;SDS011;32278;51.810;4.712;2023-03-01T13:37:29;7.13;;;3.08;;
46551;SDS011;32278;51.810;4.712;2023-03-01T13:39:57;4.72;;;2.67;;
46551;SDS011;32278;51.810;4.712;2023-03-01T13:42:34;7.18;;;2.90;;
46551;SDS011;32278;51.810;4.712;2023-03-01T13:45:02;5.53;;;2.90;;
46551;SDS011;32278;51.810;4.712;2023-03-01T13:47:56;3.83;;;2.22;;
46551;SDS011;32278;51.810;4.712;2023-03-01T13:50:27;8.35;;;2.97;;
46551;SDS011;32278;51.810;4.712;2023-03-01T13:52:59;4.78;;;2.35;;
46551;SDS011;32278;51.810;4.712;2023-03-01T13:58:29;5.88;;;2.70;;
46551;SDS011;32278;51.810;4.712;2023-03-01T14:00:57;5.10;;;2.50;;
46551;SDS011;32278;51.810;4.712;2023-03-01T14:03:29;5.75;;;2.22;;
46551;SDS011;32278;51.810;4.712;2023-03-01T14:06:06;3.60;;;2.50;;
46551;SDS011;32278;51.810;4.712;2023-03-01T14:08:40;5.72;;;2.85;;
46551;SDS011;32278;51.810;4.712;2023-03-01T14:19:45;6.70;;;3.40;;
46551;SDS011;32278;51.810;4.712;2023-03-01T14:22:16;6.65;;;3.15;;
46551;SDS011;32278;51.810;4.712;2023-03-01T14:24:53;5.13;;;3.03;;
46551;SDS011;32278;51.810;4.712;2023-03-01T14:27:33;4.68;;;2.70;;
46551;SDS011;32278;51.810;4.712;2023-03-01T14:30:09;8.10;;;3.10;;
46551;SDS011;32278;51.810;4.712;2023-03-01T14:32:39;6.55;;;3.05;;
46551;SDS011;32278;51.810;4.712;2023-03-01T14:35:22;4.38;;;2.50;;
46551;SDS011;32278;51.810;4.712;2023-03-01T14:37:56;7.18;;;3.03;;
46551;SDS011;32278;51.810;4.712;2023-03-01T14:42:50;5.43;;;2.60;;
46551;SDS011;32278;51.810;4.712;2023-03-01T14:45:18;5.13;;;3.00;;
46551;SDS011;32278;51.810;4.712;2023-03-01T14:47:44;5.85;;;3.38;;
46551;SDS011;32278;51.810;4.712;2023-03-01T14:52:46;5.15;;;2.97;;
46551;SDS011;32278;51.810;4.712;2023-03-01T14:55:16;6.78;;;3.22;;
46551;SDS011;32278;51.810;4.712;2023-03-01T14:57:50;7.00;;;2.85;;
46551;SDS011;32278;51.810;4.712;2023-03-01T15:00:21;6.80;;;3.22;;
46551;SDS011;32278;51.810;4.712;2023-03-01T15:05:16;6.00;;;3.05;;
46551;SDS011;32278;51.810;4.712;2023-03-01T15:08:03;9.25;;;3.20;;
46551;SDS011;32278;51.810;4.712;2023-03-01T15:10:31;5.05;;;3.03;;
46551;SDS011;32278;51.810;4.712;2023-03-01T15:13:12;3.35;;;2.58;;
46551;SDS011;32278;51.810;4.712;2023-03-01T15:15:45;4.05;;;2.75;;
46551;SDS011;32278;51.810;4.712;2023-03-01T15:18:14;3.45;;;2.67;;
46551;SDS011;32278;51.810;4.712;2023-03-01T15:20:43;7.55;;;3.50;;
46551;SDS011;32278;51.810;4.712;2023-03-01T15:25:55;5.57;;;3.20;;
46551;SDS011;32278;51.810;4.712;2023-03-01T15:28:22;6.88;;;3.08;;
46551;SDS011;32278;51.810;4.712;2023-03-01T15:31:00;8.35;;;3.05;;
46551;SDS011;32278;51.810;4.712;2023-03-01T15:33:29;7.57;;;2.90;;
46551;SDS011;32278;51.810;4.712;2023-03-01T15:35:56;5.97;;;3.55;;
46551;SDS011;32278;51.810;4.712;2023-03-01T15:40:52;9.45;;;4.80;;
46551;SDS011;32278;51.810;4.712;2023-03-01T15:46:20;8.93;;;3.42;;
46551;SDS011;32278;51.810;4.712;2023-03-01T15:49:05;7.72;;;3.80;;
46551;SDS011;32278;51.810;4.712;2023-03-01T15:52:00;12.75;;;4.10;;
46551;SDS011;32278;51.810;4.712;2023-03-01T15:54:26;6.30;;;3.42;;
46551;SDS011;32278;51.810;4.712;2023-03-01T15:56:52;4.65;;;2.75;;
46551;SDS011;32278;51.810;4.712;2023-03-01T15:59:18;7.90;;;2.70;;
46551;SDS011;32278;51.810;4.712;2023-03-01T16:01:44;5.65;;;2.75;;
46551;SDS011;32278;51.810;4.712;2023-03-01T16:04:11;5.68;;;2.88;;
46551;SDS011;32278;51.810;4.712;2023-03-01T16:06:41;6.22;;;3.60;;
46551;SDS011;32278;51.810;4.712;2023-03-01T16:09:07;6.80;;;2.95;;
46551;SDS011;32278;51.810;4.712;2023-03-01T16:11:32;6.72;;;3.20;;
46551;SDS011;32278;51.810;4.712;2023-03-01T16:14:01;4.57;;;3.20;;
46551;SDS011;32278;51.810;4.712;2023-03-01T16:16:27;10.77;;;3.55;;
46551;SDS011;32278;51.810;4.712;2023-03-01T16:18:52;8.40;;;4.07;;
46551;SDS011;32278;51.810;4.712;2023-03-01T16:21:20;5.75;;;3.20;;
46551;SDS011;32278;51.810;4.712;2023-03-01T16:23:50;6.57;;;3.65;;
46551;SDS011;32278;51.810;4.712;2023-03-01T16:26:16;5.65;;;3.45;;
46551;SDS011;32278;51.810;4.712;2023-03-01T16:28:43;4.28;;;2.92;;
46551;SDS011;32278;51.810;4.712;2023-03-01T16:31:09;8.80;;;3.50;;
46551;SDS011;32278;51.810;4.712;2023-03-01T16:33:35;8.18;;;4.20;;
46551;SDS011;32278;51.810;4.712;2023-03-01T16:36:11;7.50;;;3.03;;
46551;SDS011;32278;51.810;4.712;2023-03-01T16:38:37;8.85;;;3.08;;
46551;SDS011;32278;51.810;4.712;2023-03-01T16:41:03;5.80;;;3.17;;